sensor_id;sensor_type;location;lat;lon;timestamp;P1;durP1;ratioP1;P2;durP2;ratioP2
80868;SDS011;70295;40.182;44.498;2023-12-14T00:00:59;67.7;;;33.5;;
80868;SDS011;70295;40.182;44.498;2023-12-14T00:02:59;69.5;;;33.2;;
80868;SDS011;70295;40.182;44.498;2023-12-14T00:04:59;67.5;;;34;;
80868;SDS011;70295;40.182;44.498;2023-12-14T00:06:59;68.7;;;34.2;;
80868;SDS011;70295;40.182;44.498;2023-12-14T00:08:59;65.6;;;32.4;;
80868;SDS011;70295;40.182;44.498;2023-12-14T00:11:07;69.5;;;32.7;;
80868;SDS011;70295;40.182;44.498;2023-12-14T00:12:59;65.9;;;33;;
80868;SDS011;70295;40.182;44.498;2023-12-14T00:14:59;70.7;;;34.3;;
80868;SDS011;70295;40.182;44.498;2023-12-14T00:16:59;68.2;;;32.8;;
80868;SDS011;70295;40.182;44.498;2023-12-14T00:18:59;66;;;33.2;;
80868;SDS011;70295;40.182;44.498;2023-12-14T00:20:59;67.2;;;32.4;;
80868;SDS011;70295;40.182;44.498;2023-12-14T00:22:59;68.1;;;32.8;;
80868;SDS011;70295;40.182;44.498;2023-12-14T00:25:00;63;;;31.4;;
80868;SDS011;70295;40.182;44.498;2023-12-14T00:26:59;67.1;;;30.9;;
80868;SDS011;70295;40.182;44.498;2023-12-14T00:28:59;62.5;;;30.7;;
80868;SDS011;70295;40.182;44.498;2023-12-14T00:30:59;64.7;;;31.9;;
80868;SDS011;70295;40.182;44.498;2023-12-14T00:32:59;68.5;;;32.1;;
80868;SDS011;70295;40.182;44.498;2023-12-14T00:34:59;64.9;;;30.6;;
80868;SDS011;70295;40.182;44.498;2023-12-14T00:36:59;66.8;;;31.4;;
80868;SDS011;70295;40.182;44.498;2023-12-14T00:38:59;62.4;;;31.3;;
80868;SDS011;70295;40.182;44.498;2023-12-14T00:40:59;69.8;;;31.8;;
80868;SDS011;70295;40.182;44.498;2023-12-14T00:42:59;68.1;;;32.7;;
80868;SDS011;70295;40.182;44.498;2023-12-14T00:44:59;71.5;;;32.9;;
80868;SDS011;70295;40.182;44.498;2023-12-14T00:46:59;64.6;;;31.1;;
80868;SDS011;70295;40.182;44.498;2023-12-14T00:48:59;60;;;30.7;;
80868;SDS011;70295;40.182;44.498;2023-12-14T00:50:59;66;;;32;;
80868;SDS011;70295;40.182;44.498;2023-12-14T00:52:59;67.9;;;32.2;;
80868;SDS011;70295;40.182;44.498;2023-12-14T00:54:59;64.1;;;30.5;;
80868;SDS011;70295;40.182;44.498;2023-12-14T00:56:59;66.8;;;31.5;;
80868;SDS011;70295;40.182;44.498;2023-12-14T00:58:59;66.3;;;30;;
80868;SDS011;70295;40.182;44.498;2023-12-14T01:00:59;60.6;;;29.7;;
80868;SDS011;70295;40.182;44.498;2023-12-14T01:02:59;64.7;;;29.5;;
80868;SDS011;70295;40.182;44.498;2023-12-14T01:04:59;56.9;;;29.1;;
80868;SDS011;70295;40.182;44.498;2023-12-14T01:06:59;62.7;;;29.1;;
80868;SDS011;70295;40.182;44.498;2023-12-14T01:08:59;66;;;31.4;;
80868;SDS011;70295;40.182;44.498;2023-12-14T01:10:59;67.1;;;31;;
80868;SDS011;70295;40.182;44.498;2023-12-14T01:12:59;65.5;;;31.9;;
80868;SDS011;70295;40.182;44.498;2023-12-14T01:14:59;64.4;;;31.5;;
80868;SDS011;70295;40.182;44.498;2023-12-14T01:16:59;63.7;;;30.4;;
80868;SDS011;70295;40.182;44.498;2023-12-14T01:18:59;66;;;31.7;;
80868;SDS011;70295;40.182;44.498;2023-12-14T01:20:59;67.5;;;32.2;;
80868;SDS011;70295;40.182;44.498;2023-12-14T01:22:59;60.4;;;30.6;;
80868;SDS011;70295;40.182;44.498;2023-12-14T01:24:59;61.7;;;30.8;;
80868;SDS011;70295;40.182;44.498;2023-12-14T01:26:59;61;;;28.3;;
80868;SDS011;70295;40.182;44.498;2023-12-14T01:28:59;60;;;29;;
80868;SDS011;70295;40.182;44.498;2023-12-14T01:30:59;50.7;;;25.4;;
80868;SDS011;70295;40.182;44.498;2023-12-14T01:32:59;50.9;;;25.4;;
80868;SDS011;70295;40.182;44.498;2023-12-14T01:34:59;47.2;;;24.1;;
80868;SDS011;70295;40.182;44.498;2023-12-14T01:36:59;47;;;24.3;;
80868;SDS011;70295;40.182;44.498;2023-12-14T01:38:59;52.3;;;25.5;;
80868;SDS011;70295;40.182;44.498;2023-12-14T01:40:59;50;;;24.8;;
80868;SDS011;70295;40.182;44.498;2023-12-14T01:43:07;46.7;;;24.3;;
80868;SDS011;70295;40.182;44.498;2023-12-14T01:44:59;48.8;;;24.1;;
80868;SDS011;70295;40.182;44.498;2023-12-14T01:46:59;52.4;;;24.7;;
80868;SDS011;70295;40.182;44.498;2023-12-14T01:48:59;58.9;;;27;;
80868;SDS011;70295;40.182;44.498;2023-12-14T01:50:59;55.9;;;26.6;;
80868;SDS011;70295;40.182;44.498;2023-12-14T01:52:59;61.2;;;28.7;;
80868;SDS011;70295;40.182;44.498;2023-12-14T01:54:59;62.2;;;28.6;;
80868;SDS011;70295;40.182;44.498;2023-12-14T01:56:59;65.4;;;29.6;;
80868;SDS011;70295;40.182;44.498;2023-12-14T01:58:59;65.7;;;30.3;;
80868;SDS011;70295;40.182;44.498;2023-12-14T02:01:11;66.4;;;29.8;;
80868;SDS011;70295;40.182;44.498;2023-12-14T02:02:59;69.3;;;30.4;;
80868;SDS011;70295;40.182;44.498;2023-12-14T02:04:59;72.1;;;31.5;;
80868;SDS011;70295;40.182;44.498;2023-12-14T02:06:59;70.2;;;31.3;;
80868;SDS011;70295;40.182;44.498;2023-12-14T02:08:59;73.1;;;32.3;;
80868;SDS011;70295;40.182;44.498;2023-12-14T02:10:59;72.3;;;31.1;;
80868;SDS011;70295;40.182;44.498;2023-12-14T02:13:01;67.4;;;32.3;;
80868;SDS011;70295;40.182;44.498;2023-12-14T02:14:59;65.6;;;29.8;;
80868;SDS011;70295;40.182;44.498;2023-12-14T02:16:59;67;;;29;;
80868;SDS011;70295;40.182;44.498;2023-12-14T02:18:59;60.6;;;26.6;;
80868;SDS011;70295;40.182;44.498;2023-12-14T02:20:59;67.2;;;29;;
80868;SDS011;70295;40.182;44.498;2023-12-14T02:22:59;68.2;;;27.9;;
80868;SDS011;70295;40.182;44.498;2023-12-14T02:24:59;64.9;;;27.1;;
80868;SDS011;70295;40.182;44.498;2023-12-14T02:26:59;65.6;;;28.2;;
80868;SDS011;70295;40.182;44.498;2023-12-14T02:28:59;68.4;;;28.5;;
80868;SDS011;70295;40.182;44.498;2023-12-14T02:30:59;63.7;;;28.1;;
80868;SDS011;70295;40.182;44.498;2023-12-14T02:32:59;67.2;;;28.6;;
80868;SDS011;70295;40.182;44.498;2023-12-14T02:34:59;66.2;;;28.3;;
80868;SDS011;70295;40.182;44.498;2023-12-14T02:36:59;67.7;;;28;;
80868;SDS011;70295;40.182;44.498;2023-12-14T02:38:59;68.9;;;30.4;;
80868;SDS011;70295;40.182;44.498;2023-12-14T02:40:59;73.4;;;31.6;;
80868;SDS011;70295;40.182;44.498;2023-12-14T02:42:59;72.2;;;31.7;;
80868;SDS011;70295;40.182;44.498;2023-12-14T02:44:59;64.2;;;27.2;;
80868;SDS011;70295;40.182;44.498;2023-12-14T02:46:59;62.2;;;25.6;;
80868;SDS011;70295;40.182;44.498;2023-12-14T02:48:59;61.3;;;24.9;;
80868;SDS011;70295;40.182;44.498;2023-12-14T02:50:59;59.2;;;23.8;;
80868;SDS011;70295;40.182;44.498;2023-12-14T02:52:59;63.7;;;26.3;;
80868;SDS011;70295;40.182;44.498;2023-12-14T02:54:59;65.8;;;27.3;;
80868;SDS011;70295;40.182;44.498;2023-12-14T02:56:59;63.3;;;26.7;;
80868;SDS011;70295;40.182;44.498;2023-12-14T02:58:59;59.4;;;25;;
80868;SDS011;70295;40.182;44.498;2023-12-14T03:00:59;62.9;;;24.9;;
80868;SDS011;70295;40.182;44.498;2023-12-14T03:02:59;65.8;;;24.2;;
80868;SDS011;70295;40.182;44.498;2023-12-14T03:04:59;66.3;;;27;;
80868;SDS011;70295;40.182;44.498;2023-12-14T03:06:59;66;;;26.6;;
80868;SDS011;70295;40.182;44.498;2023-12-14T03:09:00;67.5;;;26.6;;
80868;SDS011;70295;40.182;44.498;2023-12-14T03:10:59;60.9;;;25.1;;
80868;SDS011;70295;40.182;44.498;2023-12-14T03:12:59;59.2;;;24.8;;
80868;SDS011;70295;40.182;44.498;2023-12-14T03:14:59;63.6;;;27.8;;
80868;SDS011;70295;40.182;44.498;2023-12-14T03:16:59;62.7;;;28;;
80868;SDS011;70295;40.182;44.498;2023-12-14T03:18:59;64.1;;;28.8;;
80868;SDS011;70295;40.182;44.498;2023-12-14T03:20:59;63.5;;;28.8;;
80868;SDS011;70295;40.182;44.498;2023-12-14T03:22:59;65.8;;;29.4;;
80868;SDS011;70295;40.182;44.498;2023-12-14T03:24:59;66.7;;;30.7;;
80868;SDS011;70295;40.182;44.498;2023-12-14T03:26:59;64.7;;;30;;
80868;SDS011;70295;40.182;44.498;2023-12-14T03:28:59;66;;;29.2;;
80868;SDS011;70295;40.182;44.498;2023-12-14T03:30:59;68.5;;;30.8;;
80868;SDS011;70295;40.182;44.498;2023-12-14T03:32:59;62.4;;;27.7;;
80868;SDS011;70295;40.182;44.498;2023-12-14T03:34:59;67.4;;;28.7;;
80868;SDS011;70295;40.182;44.498;2023-12-14T03:36:59;63.3;;;27.9;;
80868;SDS011;70295;40.182;44.498;2023-12-14T03:38:59;64.9;;;26.9;;
80868;SDS011;70295;40.182;44.498;2023-12-14T03:40:59;57.4;;;24.9;;
80868;SDS011;70295;40.182;44.498;2023-12-14T03:42:59;55.9;;;24.6;;
80868;SDS011;70295;40.182;44.498;2023-12-14T03:44:59;57.9;;;25.7;;
80868;SDS011;70295;40.182;44.498;2023-12-14T03:46:59;59.2;;;27.5;;
80868;SDS011;70295;40.182;44.498;2023-12-14T03:48:59;65.1;;;28.9;;
80868;SDS011;70295;40.182;44.498;2023-12-14T03:51:02;67.3;;;31.1;;
80868;SDS011;70295;40.182;44.498;2023-12-14T03:52:59;69.6;;;31.8;;
80868;SDS011;70295;40.182;44.498;2023-12-14T03:54:59;72.3;;;32.4;;
80868;SDS011;70295;40.182;44.498;2023-12-14T03:56:59;78.6;;;34.7;;
80868;SDS011;70295;40.182;44.498;2023-12-14T03:58:59;86.9;;;32;;
80868;SDS011;70295;40.182;44.498;2023-12-14T04:00:59;72.5;;;32.7;;
80868;SDS011;70295;40.182;44.498;2023-12-14T04:02:59;84.2;;;33.6;;
80868;SDS011;70295;40.182;44.498;2023-12-14T04:04:59;75.2;;;34.4;;
80868;SDS011;70295;40.182;44.498;2023-12-14T04:06:59;72.8;;;34;;
80868;SDS011;70295;40.182;44.498;2023-12-14T04:08:59;70.4;;;34.8;;
80868;SDS011;70295;40.182;44.498;2023-12-14T04:10:59;79.1;;;33.4;;
80868;SDS011;70295;40.182;44.498;2023-12-14T04:12:59;68.4;;;31.7;;
80868;SDS011;70295;40.182;44.498;2023-12-14T04:14:59;72.9;;;32.5;;
80868;SDS011;70295;40.182;44.498;2023-12-14T04:16:59;71.7;;;33.8;;
80868;SDS011;70295;40.182;44.498;2023-12-14T04:18:59;68.8;;;33.9;;
80868;SDS011;70295;40.182;44.498;2023-12-14T04:20:59;67;;;32.1;;
80868;SDS011;70295;40.182;44.498;2023-12-14T04:22:59;72.2;;;31;;
80868;SDS011;70295;40.182;44.498;2023-12-14T04:24:59;71.2;;;33.2;;
80868;SDS011;70295;40.182;44.498;2023-12-14T04:26:59;70;;;30.4;;
80868;SDS011;70295;40.182;44.498;2023-12-14T04:28:59;70.3;;;33.8;;
80868;SDS011;70295;40.182;44.498;2023-12-14T04:30:59;72;;;32.4;;
80868;SDS011;70295;40.182;44.498;2023-12-14T04:32:59;77.6;;;34.8;;
80868;SDS011;70295;40.182;44.498;2023-12-14T04:34:59;69.2;;;31.9;;
80868;SDS011;70295;40.182;44.498;2023-12-14T04:36:59;74.4;;;33.2;;
80868;SDS011;70295;40.182;44.498;2023-12-14T04:38:59;68.5;;;32;;
80868;SDS011;70295;40.182;44.498;2023-12-14T04:40:59;72;;;32.2;;
80868;SDS011;70295;40.182;44.498;2023-12-14T04:42:59;69.4;;;31.6;;
80868;SDS011;70295;40.182;44.498;2023-12-14T04:44:59;71.2;;;32;;
80868;SDS011;70295;40.182;44.498;2023-12-14T04:46:59;77.8;;;33.8;;
80868;SDS011;70295;40.182;44.498;2023-12-14T04:48:59;69.8;;;32.2;;
80868;SDS011;70295;40.182;44.498;2023-12-14T04:50:59;83.2;;;36.6;;
80868;SDS011;70295;40.182;44.498;2023-12-14T04:52:59;87.7;;;37.3;;
80868;SDS011;70295;40.182;44.498;2023-12-14T04:54:59;80.1;;;36.5;;
80868;SDS011;70295;40.182;44.498;2023-12-14T04:56:59;89.5;;;37.6;;
80868;SDS011;70295;40.182;44.498;2023-12-14T04:58:59;76;;;35.5;;
80868;SDS011;70295;40.182;44.498;2023-12-14T05:00:59;87.6;;;34.8;;
80868;SDS011;70295;40.182;44.498;2023-12-14T05:02:59;90.7;;;37.3;;
80868;SDS011;70295;40.182;44.498;2023-12-14T05:04:59;88.3;;;36.3;;
80868;SDS011;70295;40.182;44.498;2023-12-14T05:06:59;88.2;;;36.9;;
80868;SDS011;70295;40.182;44.498;2023-12-14T05:08:59;82.7;;;36.6;;
80868;SDS011;70295;40.182;44.498;2023-12-14T05:10:59;79.3;;;34.4;;
80868;SDS011;70295;40.182;44.498;2023-12-14T05:12:59;83.2;;;32.6;;
80868;SDS011;70295;40.182;44.498;2023-12-14T05:14:59;94.2;;;35.1;;
80868;SDS011;70295;40.182;44.498;2023-12-14T05:16:59;88.9;;;35.3;;
80868;SDS011;70295;40.182;44.498;2023-12-14T05:18:59;88.3;;;33.6;;
80868;SDS011;70295;40.182;44.498;2023-12-14T05:28:48;84.6;;;34.9;;
80868;SDS011;70295;40.182;44.498;2023-12-14T05:32:25;85;;;36.4;;
80868;SDS011;70295;40.182;44.498;2023-12-14T05:34:25;84.6;;;36.3;;
80868;SDS011;70295;40.182;44.498;2023-12-14T05:36:25;92.7;;;37.8;;
80868;SDS011;70295;40.182;44.498;2023-12-14T05:38:25;90.1;;;36.3;;
80868;SDS011;70295;40.182;44.498;2023-12-14T05:40:25;89.3;;;36.2;;
80868;SDS011;70295;40.182;44.498;2023-12-14T05:42:25;90.4;;;35.9;;
80868;SDS011;70295;40.182;44.498;2023-12-14T05:44:25;87.5;;;35.7;;
80868;SDS011;70295;40.182;44.498;2023-12-14T05:46:25;87.5;;;36.4;;
80868;SDS011;70295;40.182;44.498;2023-12-14T05:48:25;89.2;;;36.9;;
80868;SDS011;70295;40.182;44.498;2023-12-14T05:50:25;78.3;;;33.8;;
80868;SDS011;70295;40.182;44.498;2023-12-14T05:52:25;64.5;;;30.5;;
80868;SDS011;70295;40.182;44.498;2023-12-14T05:54:25;88.3;;;35.8;;
80868;SDS011;70295;40.182;44.498;2023-12-14T05:56:26;87.3;;;37.3;;
80868;SDS011;70295;40.182;44.498;2023-12-14T05:58:25;88.1;;;35.6;;
80868;SDS011;70295;40.182;44.498;2023-12-14T06:00:25;82.6;;;35.4;;
80868;SDS011;70295;40.182;44.498;2023-12-14T06:02:25;82.2;;;34.9;;
80868;SDS011;70295;40.182;44.498;2023-12-14T06:04:26;83.2;;;35.3;;
80868;SDS011;70295;40.182;44.498;2023-12-14T06:06:25;81.8;;;34.1;;
80868;SDS011;70295;40.182;44.498;2023-12-14T06:08:25;82.4;;;33.9;;
80868;SDS011;70295;40.182;44.498;2023-12-14T06:10:25;78.6;;;33.6;;
80868;SDS011;70295;40.182;44.498;2023-12-14T06:12:25;72.6;;;32;;
80868;SDS011;70295;40.182;44.498;2023-12-14T06:14:25;73.3;;;31.7;;
80868;SDS011;70295;40.182;44.498;2023-12-14T06:16:25;65.2;;;28.9;;
80868;SDS011;70295;40.182;44.498;2023-12-14T06:18:25;67.9;;;30.8;;
80868;SDS011;70295;40.182;44.498;2023-12-14T06:20:25;65.1;;;29.2;;
80868;SDS011;70295;40.182;44.498;2023-12-14T06:22:25;64.5;;;28.9;;
80868;SDS011;70295;40.182;44.498;2023-12-14T06:24:25;64.4;;;30.1;;
80868;SDS011;70295;40.182;44.498;2023-12-14T06:26:26;69.7;;;31;;
80868;SDS011;70295;40.182;44.498;2023-12-14T06:28:25;67.3;;;30.7;;
80868;SDS011;70295;40.182;44.498;2023-12-14T06:30:25;71;;;31.2;;
80868;SDS011;70295;40.182;44.498;2023-12-14T06:32:25;69.9;;;30.2;;
80868;SDS011;70295;40.182;44.498;2023-12-14T06:34:25;76.9;;;31.2;;
80868;SDS011;70295;40.182;44.498;2023-12-14T06:36:25;73.7;;;31.9;;
80868;SDS011;70295;40.182;44.498;2023-12-14T06:38:25;75;;;32.8;;
80868;SDS011;70295;40.182;44.498;2023-12-14T06:40:25;70.1;;;32.5;;
80868;SDS011;70295;40.182;44.498;2023-12-14T06:42:27;73.1;;;32.7;;
80868;SDS011;70295;40.182;44.498;2023-12-14T06:44:25;79.1;;;32.8;;
80868;SDS011;70295;40.182;44.498;2023-12-14T06:46:25;74.5;;;33.8;;
80868;SDS011;70295;40.182;44.498;2023-12-14T06:48:25;78;;;34.2;;
80868;SDS011;70295;40.182;44.498;2023-12-14T06:50:25;76.7;;;34.8;;
80868;SDS011;70295;40.182;44.498;2023-12-14T06:52:25;72.4;;;33.6;;
80868;SDS011;70295;40.182;44.498;2023-12-14T06:54:25;73.5;;;31.6;;
80868;SDS011;70295;40.182;44.498;2023-12-14T06:56:25;74.7;;;33.3;;
80868;SDS011;70295;40.182;44.498;2023-12-14T06:58:25;77.8;;;33;;
80868;SDS011;70295;40.182;44.498;2023-12-14T07:00:25;80.8;;;34.9;;
80868;SDS011;70295;40.182;44.498;2023-12-14T07:02:25;78.2;;;34.1;;
80868;SDS011;70295;40.182;44.498;2023-12-14T07:04:25;79.8;;;35.7;;
80868;SDS011;70295;40.182;44.498;2023-12-14T07:06:25;80.9;;;35.6;;
80868;SDS011;70295;40.182;44.498;2023-12-14T07:08:25;84.7;;;36.2;;
80868;SDS011;70295;40.182;44.498;2023-12-14T07:10:25;81.9;;;35.9;;
80868;SDS011;70295;40.182;44.498;2023-12-14T07:12:25;82.2;;;35.5;;
80868;SDS011;70295;40.182;44.498;2023-12-14T07:14:25;81.3;;;34.8;;
80868;SDS011;70295;40.182;44.498;2023-12-14T07:16:25;82.3;;;36;;
80868;SDS011;70295;40.182;44.498;2023-12-14T07:18:25;86.2;;;37.6;;
80868;SDS011;70295;40.182;44.498;2023-12-14T07:20:25;88.3;;;35.2;;
80868;SDS011;70295;40.182;44.498;2023-12-14T07:22:25;91.7;;;38.3;;
80868;SDS011;70295;40.182;44.498;2023-12-14T07:24:25;91.7;;;38.8;;
80868;SDS011;70295;40.182;44.498;2023-12-14T07:26:25;95.5;;;39.8;;
80868;SDS011;70295;40.182;44.498;2023-12-14T07:28:25;92.4;;;39;;
80868;SDS011;70295;40.182;44.498;2023-12-14T07:30:25;101.6;;;43.7;;
80868;SDS011;70295;40.182;44.498;2023-12-14T07:32:25;104.1;;;41.7;;
80868;SDS011;70295;40.182;44.498;2023-12-14T07:34:25;100.9;;;43;;
80868;SDS011;70295;40.182;44.498;2023-12-14T07:38:33;108.1;;;44.5;;
80868;SDS011;70295;40.182;44.498;2023-12-14T07:40:33;112;;;46.6;;
80868;SDS011;70295;40.182;44.498;2023-12-14T07:42:33;108.6;;;44.8;;
80868;SDS011;70295;40.182;44.498;2023-12-14T07:44:34;110.6;;;45.7;;
80868;SDS011;70295;40.182;44.498;2023-12-14T07:46:33;120.5;;;46.3;;
80868;SDS011;70295;40.182;44.498;2023-12-14T07:48:33;96.8;;;42.1;;
80868;SDS011;70295;40.182;44.498;2023-12-14T07:50:33;99.8;;;40.9;;
80868;SDS011;70295;40.182;44.498;2023-12-14T07:52:33;80.7;;;35;;
80868;SDS011;70295;40.182;44.498;2023-12-14T07:54:33;76.8;;;34.3;;
80868;SDS011;70295;40.182;44.498;2023-12-14T07:56:33;80.1;;;35.6;;
80868;SDS011;70295;40.182;44.498;2023-12-14T07:58:33;87.5;;;38.3;;
80868;SDS011;70295;40.182;44.498;2023-12-14T08:00:21;88.3;;;38.3;;
80868;SDS011;70295;40.182;44.498;2023-12-14T08:02:21;86.3;;;38;;
80868;SDS011;70295;40.182;44.498;2023-12-14T08:04:21;88.6;;;38.3;;
80868;SDS011;70295;40.182;44.498;2023-12-14T08:06:21;87.2;;;37.6;;
80868;SDS011;70295;40.182;44.498;2023-12-14T08:08:21;90.8;;;38.6;;
80868;SDS011;70295;40.182;44.498;2023-12-14T08:10:21;84.6;;;36.4;;
80868;SDS011;70295;40.182;44.498;2023-12-14T08:12:21;84.8;;;37.3;;
80868;SDS011;70295;40.182;44.498;2023-12-14T08:14:21;79.2;;;35;;
80868;SDS011;70295;40.182;44.498;2023-12-14T08:16:21;71.8;;;33.7;;
80868;SDS011;70295;40.182;44.498;2023-12-14T08:18:21;77.8;;;34.3;;
80868;SDS011;70295;40.182;44.498;2023-12-14T08:20:21;76.4;;;36.2;;
80868;SDS011;70295;40.182;44.498;2023-12-14T08:22:21;76.9;;;34.7;;
80868;SDS011;70295;40.182;44.498;2023-12-14T08:24:21;77.1;;;36.9;;
80868;SDS011;70295;40.182;44.498;2023-12-14T08:26:21;74.6;;;35.1;;
80868;SDS011;70295;40.182;44.498;2023-12-14T08:28:21;72.6;;;34.8;;
80868;SDS011;70295;40.182;44.498;2023-12-14T08:30:21;78.5;;;35.8;;
80868;SDS011;70295;40.182;44.498;2023-12-14T08:32:21;83.1;;;36.9;;
80868;SDS011;70295;40.182;44.498;2023-12-14T08:34:21;75.9;;;35.2;;
80868;SDS011;70295;40.182;44.498;2023-12-14T08:36:21;80.6;;;36.3;;
80868;SDS011;70295;40.182;44.498;2023-12-14T08:38:21;89.2;;;39.8;;
80868;SDS011;70295;40.182;44.498;2023-12-14T08:40:21;84.6;;;40.9;;
80868;SDS011;70295;40.182;44.498;2023-12-14T08:43:59;82.9;;;40.1;;
80868;SDS011;70295;40.182;44.498;2023-12-14T08:45:59;86.8;;;38.7;;
80868;SDS011;70295;40.182;44.498;2023-12-14T08:47:59;85.6;;;38.8;;
80868;SDS011;70295;40.182;44.498;2023-12-14T08:49:59;96.9;;;44.6;;
80868;SDS011;70295;40.182;44.498;2023-12-14T08:51:59;93.5;;;43.2;;
80868;SDS011;70295;40.182;44.498;2023-12-14T08:53:59;84.3;;;40.2;;
80868;SDS011;70295;40.182;44.498;2023-12-14T08:55:07;83.1;;;39.8;;
80868;SDS011;70295;40.182;44.498;2023-12-14T08:57:06;83.7;;;40.1;;
80868;SDS011;70295;40.182;44.498;2023-12-14T08:59:06;73.8;;;34.8;;
80868;SDS011;70295;40.182;44.498;2023-12-14T09:01:06;76.8;;;36.6;;
80868;SDS011;70295;40.182;44.498;2023-12-14T09:03:06;69.7;;;33.6;;
80868;SDS011;70295;40.182;44.498;2023-12-14T09:05:07;74.2;;;35.2;;
80868;SDS011;70295;40.182;44.498;2023-12-14T09:07:06;77.4;;;35.6;;
80868;SDS011;70295;40.182;44.498;2023-12-14T09:09:06;79.2;;;37.7;;
80868;SDS011;70295;40.182;44.498;2023-12-14T09:11:06;88.3;;;41.1;;
80868;SDS011;70295;40.182;44.498;2023-12-14T09:12:25;84.2;;;38.5;;
80868;SDS011;70295;40.182;44.498;2023-12-14T09:14:25;79;;;37.1;;
80868;SDS011;70295;40.182;44.498;2023-12-14T09:16:25;77.9;;;38.3;;
80868;SDS011;70295;40.182;44.498;2023-12-14T09:18:25;82.5;;;39.8;;
80868;SDS011;70295;40.182;44.498;2023-12-14T09:20:25;69.4;;;35.1;;
80868;SDS011;70295;40.182;44.498;2023-12-14T09:22:25;72.4;;;33.9;;
80868;SDS011;70295;40.182;44.498;2023-12-14T09:24:25;61.4;;;31.5;;
80868;SDS011;70295;40.182;44.498;2023-12-14T09:26:25;58.3;;;28.5;;
80868;SDS011;70295;40.182;44.498;2023-12-14T09:28:25;63;;;30.2;;
80868;SDS011;70295;40.182;44.498;2023-12-14T09:30:25;57.6;;;29;;
80868;SDS011;70295;40.182;44.498;2023-12-14T09:32:25;63.3;;;30;;
80868;SDS011;70295;40.182;44.498;2023-12-14T09:34:25;61.3;;;28.6;;
80868;SDS011;70295;40.182;44.498;2023-12-14T09:36:25;62.9;;;29.9;;
80868;SDS011;70295;40.182;44.498;2023-12-14T09:38:25;45.7;;;22.7;;
80868;SDS011;70295;40.182;44.498;2023-12-14T09:40:25;47;;;23.1;;
80868;SDS011;70295;40.182;44.498;2023-12-14T09:42:25;38.2;;;19.4;;
80868;SDS011;70295;40.182;44.498;2023-12-14T09:44:25;29.4;;;14.7;;
80868;SDS011;70295;40.182;44.498;2023-12-14T09:46:25;26.2;;;13;;
80868;SDS011;70295;40.182;44.498;2023-12-14T09:48:25;23.8;;;12.6;;
80868;SDS011;70295;40.182;44.498;2023-12-14T09:50:25;23.5;;;12.6;;
80868;SDS011;70295;40.182;44.498;2023-12-14T09:52:25;20.3;;;11;;
80868;SDS011;70295;40.182;44.498;2023-12-14T09:54:26;22.2;;;11.4;;
80868;SDS011;70295;40.182;44.498;2023-12-14T09:56:25;22.3;;;11.5;;
80868;SDS011;70295;40.182;44.498;2023-12-14T09:58:25;20.6;;;10.2;;
80868;SDS011;70295;40.182;44.498;2023-12-14T10:02:26;19.1;;;10.3;;
80868;SDS011;70295;40.182;44.498;2023-12-14T10:04:25;17.1;;;9.5;;
80868;SDS011;70295;40.182;44.498;2023-12-14T10:06:25;18.3;;;9.8;;
80868;SDS011;70295;40.182;44.498;2023-12-14T10:08:25;20;;;11;;
80868;SDS011;70295;40.182;44.498;2023-12-14T10:10:28;19.9;;;11;;
80868;SDS011;70295;40.182;44.498;2023-12-14T10:12:25;25;;;12.7;;
80868;SDS011;70295;40.182;44.498;2023-12-14T10:14:25;28.8;;;13.4;;
80868;SDS011;70295;40.182;44.498;2023-12-14T10:16:30;24.5;;;13.4;;
80868;SDS011;70295;40.182;44.498;2023-12-14T10:18:25;25.8;;;13.4;;
80868;SDS011;70295;40.182;44.498;2023-12-14T10:20:25;27.8;;;13.8;;
80868;SDS011;70295;40.182;44.498;2023-12-14T10:22:26;28.1;;;14.3;;
80868;SDS011;70295;40.182;44.498;2023-12-14T10:24:25;28.6;;;14.7;;
80868;SDS011;70295;40.182;44.498;2023-12-14T10:26:25;28.2;;;14.8;;
80868;SDS011;70295;40.182;44.498;2023-12-14T10:28:25;29.6;;;14.6;;
80868;SDS011;70295;40.182;44.498;2023-12-14T10:30:25;30.1;;;14.5;;
80868;SDS011;70295;40.182;44.498;2023-12-14T10:32:25;27.5;;;14.3;;
80868;SDS011;70295;40.182;44.498;2023-12-14T10:34:25;25.2;;;13.5;;
80868;SDS011;70295;40.182;44.498;2023-12-14T10:36:25;27;;;13.9;;
80868;SDS011;70295;40.182;44.498;2023-12-14T10:38:25;23.7;;;13.7;;
80868;SDS011;70295;40.182;44.498;2023-12-14T10:40:26;23.9;;;12.7;;
80868;SDS011;70295;40.182;44.498;2023-12-14T10:42:26;23.3;;;12.7;;
80868;SDS011;70295;40.182;44.498;2023-12-14T10:44:26;24.9;;;12;;
80868;SDS011;70295;40.182;44.498;2023-12-14T10:46:25;27.9;;;11.9;;
80868;SDS011;70295;40.182;44.498;2023-12-14T10:48:25;26.2;;;14;;
80868;SDS011;70295;40.182;44.498;2023-12-14T10:50:26;25;;;13.2;;
80868;SDS011;70295;40.182;44.498;2023-12-14T10:52:25;24.4;;;13.1;;
80868;SDS011;70295;40.182;44.498;2023-12-14T10:54:26;30.1;;;15.1;;
80868;SDS011;70295;40.182;44.498;2023-12-14T10:56:25;32.8;;;15.2;;
80868;SDS011;70295;40.182;44.498;2023-12-14T10:58:25;25.6;;;13.8;;
80868;SDS011;70295;40.182;44.498;2023-12-14T11:00:25;24.8;;;13.4;;
80868;SDS011;70295;40.182;44.498;2023-12-14T11:02:25;23.5;;;12;;
80868;SDS011;70295;40.182;44.498;2023-12-14T11:04:27;25;;;13.3;;
80868;SDS011;70295;40.182;44.498;2023-12-14T11:06:33;26;;;12.4;;
80868;SDS011;70295;40.182;44.498;2023-12-14T11:12:30;25.5;;;13.5;;
80868;SDS011;70295;40.182;44.498;2023-12-14T11:14:30;28.4;;;15.4;;
80868;SDS011;70295;40.182;44.498;2023-12-14T11:16:30;33.6;;;17.7;;
80868;SDS011;70295;40.182;44.498;2023-12-14T11:18:30;37.9;;;19;;
80868;SDS011;70295;40.182;44.498;2023-12-14T11:20:30;39.8;;;18.8;;
80868;SDS011;70295;40.182;44.498;2023-12-14T11:22:30;45.4;;;19.3;;
80868;SDS011;70295;40.182;44.498;2023-12-14T11:24:30;39.3;;;19.7;;
80868;SDS011;70295;40.182;44.498;2023-12-14T11:26:30;36.6;;;18.7;;
80868;SDS011;70295;40.182;44.498;2023-12-14T11:28:35;33.4;;;17.6;;
80868;SDS011;70295;40.182;44.498;2023-12-14T11:30:30;30.1;;;16.5;;
80868;SDS011;70295;40.182;44.498;2023-12-14T11:32:30;29.4;;;15.7;;
80868;SDS011;70295;40.182;44.498;2023-12-14T11:34:30;31;;;14.8;;
80868;SDS011;70295;40.182;44.498;2023-12-14T11:36:30;30.9;;;16.3;;
80868;SDS011;70295;40.182;44.498;2023-12-14T11:38:30;30.6;;;15.6;;
80868;SDS011;70295;40.182;44.498;2023-12-14T11:40:30;28.3;;;14.7;;
80868;SDS011;70295;40.182;44.498;2023-12-14T11:42:30;27.3;;;15;;
80868;SDS011;70295;40.182;44.498;2023-12-14T11:44:30;24.6;;;13.8;;
80868;SDS011;70295;40.182;44.498;2023-12-14T11:46:31;25.8;;;14;;
80868;SDS011;70295;40.182;44.498;2023-12-14T11:48:30;22;;;12.4;;
80868;SDS011;70295;40.182;44.498;2023-12-14T11:50:30;24.9;;;12.7;;
80868;SDS011;70295;40.182;44.498;2023-12-14T11:52:30;21.8;;;10.1;;
80868;SDS011;70295;40.182;44.498;2023-12-14T11:54:30;23.6;;;11.2;;
80868;SDS011;70295;40.182;44.498;2023-12-14T11:56:30;24.4;;;12.1;;
80868;SDS011;70295;40.182;44.498;2023-12-14T11:58:31;22.8;;;12.2;;
80868;SDS011;70295;40.182;44.498;2023-12-14T12:00:31;24.3;;;12.6;;
80868;SDS011;70295;40.182;44.498;2023-12-14T12:02:30;25.5;;;12.5;;
80868;SDS011;70295;40.182;44.498;2023-12-14T12:04:30;24.5;;;13.8;;
80868;SDS011;70295;40.182;44.498;2023-12-14T12:06:30;26;;;13.5;;
80868;SDS011;70295;40.182;44.498;2023-12-14T12:08:30;25;;;12.9;;
80868;SDS011;70295;40.182;44.498;2023-12-14T12:10:30;29.3;;;14.4;;
80868;SDS011;70295;40.182;44.498;2023-12-14T12:12:33;29.1;;;14.9;;
80868;SDS011;70295;40.182;44.498;2023-12-14T12:14:30;28.2;;;14.4;;